createdAt,value
2023-02-07T05:02:48.131Z,10.75
2023-02-07T05:06:50.599Z,12.23
2023-02-07T05:10:54.552Z,15.13
2023-02-07T05:14:59.195Z,12.60
2023-02-07T05:19:03.104Z,12.27
2023-02-07T05:23:05.593Z,12.90
2023-02-07T05:27:08.132Z,16.90
2023-02-07T05:31:11.077Z,12.52
2023-02-07T05:35:14.900Z,13.18
2023-02-07T05:39:17.365Z,11.68
2023-02-07T05:43:19.884Z,12.80
2023-02-07T05:47:22.376Z,13.27
2023-02-07T05:51:26.308Z,12.48
2023-02-07T05:55:28.789Z,15.05
2023-02-07T05:59:31.366Z,10.75
2023-02-07T06:03:33.877Z,15.43
2023-02-07T06:07:37.715Z,11.73
2023-02-07T06:11:40.372Z,11.75
2023-02-07T06:15:43.319Z,14.65
2023-02-07T06:19:45.792Z,15.15
2023-02-07T06:23:51.589Z,13.93
2023-02-07T06:27:54.051Z,12.60
2023-02-07T06:31:56.712Z,12.25
2023-02-07T06:35:59.343Z,12.02
2023-02-07T06:40:03.285Z,12.43
2023-02-07T06:44:06.237Z,15.60
2023-02-07T06:48:10.411Z,13.25
2023-02-07T06:52:13.049Z,14.90
2023-02-07T06:56:18.632Z,19.55
2023-02-07T07:00:22.665Z,16.27
2023-02-07T07:04:25.208Z,20.27
2023-02-07T07:08:28.800Z,17.85
2023-02-07T07:12:32.616Z,18.73
2023-02-07T07:16:35.132Z,20.40
2023-02-07T07:20:37.631Z,20.73
2023-02-07T07:24:40.121Z,21.63
2023-02-07T07:28:43.999Z,18.05
2023-02-07T07:32:46.481Z,19.50
2023-02-07T07:36:48.972Z,19.42
2023-02-07T07:40:51.468Z,27.63
2023-02-07T07:44:55.286Z,20.13
2023-02-07T07:48:57.942Z,17.25
2023-02-07T07:53:00.430Z,18.55
2023-02-07T07:57:03.274Z,20.48
2023-02-07T08:01:07.276Z,19.83
2023-02-07T08:05:13.547Z,19.33
2023-02-07T08:09:16.325Z,21.15
2023-02-07T08:13:20.059Z,21.80
2023-02-07T08:17:24.392Z,18.35
2023-02-07T08:21:26.964Z,18.17
2023-02-07T08:25:29.662Z,19.35
2023-02-07T08:29:32.151Z,20.05
2023-02-07T08:33:36.028Z,23.50
2023-02-07T08:37:38.583Z,17.30
2023-02-07T08:41:41.167Z,20.10
2023-02-07T08:45:48.105Z,22.17
2023-02-07T08:49:51.909Z,23.58
2023-02-07T08:53:55.001Z,22.67
2023-02-07T08:57:57.462Z,28.10
2023-02-07T09:01:59.995Z,26.07
2023-02-07T09:06:03.896Z,25.30
2023-02-07T09:10:08.847Z,26.23
2023-02-07T09:14:11.292Z,24.35
2023-02-07T09:18:13.751Z,24.77
2023-02-07T09:22:17.789Z,28.50
2023-02-07T09:26:22.690Z,25.65
2023-02-07T09:30:25.374Z,27.25
2023-02-07T09:34:28.246Z,27.15
2023-02-07T09:38:32.085Z,27.70
2023-02-07T09:42:44.381Z,28.38
2023-02-07T09:46:53.419Z,29.20
2023-02-07T09:51:00.100Z,28.48
2023-02-07T09:55:05.655Z,26.25
2023-02-07T09:59:22.359Z,26.95
2023-02-07T10:03:25.427Z,27.73
2023-02-07T10:07:28.090Z,30.65
2023-02-07T10:11:46.255Z,24.27
2023-02-07T10:16:07.105Z,23.58
2023-02-07T10:20:27.832Z,28.13
2023-02-07T10:24:54.205Z,26.15
2023-02-07T10:29:11.549Z,24.08
2023-02-07T10:33:17.527Z,33.08
2023-02-07T10:37:21.630Z,26.00
2023-02-07T10:41:38.031Z,28.20
2023-02-07T10:45:43.304Z,25.50
2023-02-07T10:49:48.657Z,22.58
2023-02-07T10:54:02.001Z,23.63
2023-02-07T10:58:17.793Z,25.98
2023-02-07T11:02:39.513Z,24.48
2023-02-07T11:06:42.035Z,25.50
2023-02-07T11:10:46.530Z,26.60
2023-02-07T11:15:01.497Z,25.60
2023-02-07T11:19:08.005Z,20.58
2023-02-07T11:23:15.022Z,23.40
2023-02-07T11:27:21.508Z,23.17
2023-02-07T11:31:30.864Z,21.13
2023-02-07T11:35:35.401Z,20.88
2023-02-07T11:39:37.855Z,21.02
2023-02-07T11:43:53.444Z,25.98
2023-02-07T11:47:58.530Z,23.83
2023-02-07T11:52:04.259Z,19.90
2023-02-07T11:56:07.814Z,19.92
2023-02-07T12:00:20.951Z,20.10
2023-02-07T12:04:28.112Z,20.77
2023-02-07T12:08:34.630Z,17.80
2023-02-07T12:12:43.384Z,20.67
2023-02-07T12:16:50.748Z,18.42
2023-02-07T12:20:58.774Z,23.17
2023-02-07T12:25:08.228Z,17.73
2023-02-07T12:29:27.313Z,20.85
2023-02-07T12:33:38.088Z,23.17
2023-02-07T12:37:45.827Z,22.67
2023-02-07T12:41:55.794Z,20.65
2023-02-07T12:46:11.363Z,17.98
2023-02-07T12:50:40.615Z,16.80
2023-02-07T12:54:56.850Z,16.75
2023-02-07T12:59:09.345Z,20.17
2023-02-07T13:03:23.068Z,15.43
2023-02-07T13:07:46.273Z,16.88
2023-02-07T13:11:56.183Z,17.08
2023-02-07T13:16:08.311Z,17.52
2023-02-07T13:20:23.155Z,14.50
2023-02-07T13:24:29.054Z,17.02
2023-02-07T13:28:40.592Z,14.15
2023-02-07T13:32:45.482Z,15.63
2023-02-07T13:36:50.659Z,18.00
2023-02-07T13:40:59.679Z,19.70
2023-02-07T13:45:10.017Z,15.13
2023-02-07T13:49:20.953Z,14.68
2023-02-07T13:53:35.736Z,14.48
2023-02-07T13:58:01.490Z,14.80
2023-02-07T14:02:07.398Z,15.00
2023-02-07T14:06:23.652Z,12.20
2023-02-07T14:10:40.901Z,17.30
2023-02-07T14:14:53.896Z,15.23
2023-02-07T14:19:04.171Z,12.65
2023-02-07T14:23:16.986Z,14.43
2023-02-07T14:27:33.189Z,14.30
2023-02-07T14:31:35.778Z,15.02
2023-02-07T14:35:39.579Z,12.83
2023-02-07T14:39:43.524Z,15.52
2023-02-07T14:44:03.303Z,16.70
2023-02-07T14:48:32.816Z,13.85
2023-02-07T14:52:39.116Z,14.57
2023-02-07T14:56:51.861Z,13.63
2023-02-07T15:00:59.440Z,14.93
2023-02-07T15:05:17.874Z,12.57
2023-02-07T15:09:27.111Z,14.10
2023-02-07T15:13:33.569Z,16.05
2023-02-07T15:17:43.998Z,15.27
2023-02-07T15:21:49.467Z,13.25
2023-02-07T15:25:53.292Z,13.75
2023-02-07T15:29:59.625Z,12.93
2023-02-07T15:34:02.414Z,13.85
2023-02-07T15:38:16.917Z,12.95
2023-02-07T15:42:20.731Z,12.15
2023-02-07T15:46:24.577Z,13.27
2023-02-07T15:50:29.260Z,13.23
2023-02-07T15:54:35.808Z,14.98
2023-02-07T15:58:39.039Z,12.70
2023-02-07T16:02:47.429Z,11.63
2023-02-07T16:07:00.856Z,13.13
2023-02-07T16:11:14.749Z,16.15
2023-02-07T16:15:29.867Z,14.13
2023-02-07T16:19:34.119Z,13.48
2023-02-07T16:23:36.782Z,13.75
2023-02-07T16:27:40.201Z,15.23
2023-02-07T16:35:46.666Z,16.00
2023-02-07T16:39:49.193Z,12.60
2023-02-07T16:43:51.740Z,12.97
2023-02-07T16:47:55.060Z,11.90
2023-02-07T16:51:59.532Z,12.45
2023-02-07T16:56:03.263Z,15.98
2023-02-07T17:00:06.371Z,16.83
2023-02-07T17:04:08.854Z,24.52
2023-02-07T17:08:15.898Z,27.83
2023-02-07T17:12:18.497Z,14.98
2023-02-07T17:16:21.929Z,20.37
2023-02-07T17:24:29.665Z,17.30
2023-02-07T17:28:32.984Z,22.95
2023-02-07T17:32:35.526Z,25.73
2023-02-07T17:36:46.657Z,16.67
2023-02-07T17:40:51.362Z,19.55
2023-02-07T17:44:53.852Z,19.48
2023-02-07T17:48:56.587Z,32.97
2023-02-07T17:53:01.368Z,20.00
2023-02-07T17:57:05.227Z,21.27
2023-02-07T18:01:07.742Z,19.20
2023-02-07T18:05:10.838Z,17.00
2023-02-07T18:09:18.246Z,18.70
2023-02-07T18:13:22.571Z,17.77
2023-02-07T18:17:25.851Z,15.40
2023-02-07T18:21:28.821Z,17.08
2023-02-07T18:25:31.825Z,17.13
2023-02-07T18:29:35.846Z,14.88
2023-02-07T18:33:38.425Z,17.60
2023-02-07T18:37:41.068Z,18.17
2023-02-07T18:41:43.547Z,18.27
2023-02-07T18:45:47.373Z,14.93
2023-02-07T18:49:50.116Z,17.65
2023-02-07T18:53:54.813Z,18.08
2023-02-07T18:57:57.518Z,22.35
2023-02-07T19:02:01.662Z,19.88
2023-02-07T19:06:05.963Z,21.83
2023-02-07T19:10:12.132Z,18.52
2023-02-07T19:14:17.162Z,20.00
2023-02-07T19:18:21.024Z,18.45
2023-02-07T19:22:34.693Z,19.35
2023-02-07T19:26:39.833Z,21.55
2023-02-07T19:30:43.274Z,20.35
2023-02-07T19:34:49.081Z,19.67
2023-02-07T19:38:53.691Z,21.15
2023-02-07T19:42:56.168Z,16.50
2023-02-07T19:46:58.819Z,20.52
2023-02-07T19:51:06.384Z,20.33
2023-02-07T19:55:09.456Z,22.73
2023-02-07T19:59:12.168Z,24.98
2023-02-07T20:03:14.741Z,31.63
2023-02-07T20:07:19.203Z,26.73
2023-02-07T20:11:22.404Z,31.08
2023-02-07T20:15:24.892Z,27.65
2023-02-07T20:19:27.371Z,26.17
2023-02-07T20:23:31.309Z,22.73
2023-02-07T20:27:33.850Z,27.27
2023-02-07T20:31:37.578Z,31.00
2023-02-07T20:35:40.793Z,28.38
2023-02-07T20:39:44.641Z,32.38
2023-02-07T20:43:47.108Z,28.65
2023-02-07T20:47:50.536Z,28.07
2023-02-07T20:51:54.133Z,30.17
2023-02-07T20:56:07.304Z,31.95
2023-02-07T21:00:11.241Z,30.38
2023-02-07T21:04:14.272Z,30.40
2023-02-07T21:08:16.730Z,26.05
2023-02-07T21:12:20.575Z,30.70
2023-02-07T21:16:23.434Z,29.92
2023-02-07T21:20:26.759Z,24.80
2023-02-07T21:28:33.276Z,46.70
2023-02-07T21:32:35.748Z,51.40
2023-02-07T21:36:38.440Z,28.20
2023-02-07T21:40:41.138Z,30.63
2023-02-07T21:44:45.150Z,24.90
2023-02-07T21:48:48.664Z,33.83
2023-02-07T21:52:51.154Z,31.73
2023-02-07T21:56:53.634Z,31.50
